createdAt,value
2023-05-15T00:08:21.574Z,59.33
2023-05-15T00:18:23.759Z,59.73
2023-05-15T00:28:25.882Z,61.62
2023-05-15T00:38:28.967Z,61.54
2023-05-15T00:48:31.599Z,59.89
2023-05-15T00:58:33.814Z,59.26
2023-05-15T01:08:56.858Z,61.64
2023-05-15T01:18:59.034Z,61.35
2023-05-15T01:29:24.750Z,62.24
2023-05-15T01:39:27.981Z,63.96
2023-05-15T01:49:32.026Z,64.35
2023-05-15T01:59:34.672Z,64.06
2023-05-15T02:09:37.383Z,65.23
2023-05-15T02:19:39.473Z,65.71
2023-05-15T02:29:57.580Z,64.87
2023-05-15T02:40:01.149Z,65.54
2023-05-15T02:50:04.411Z,66.13
2023-05-15T03:00:11.795Z,67.68
2023-05-15T03:10:14.039Z,68.16
2023-05-15T03:20:16.349Z,68.70
2023-05-15T03:30:18.513Z,71.13
2023-05-15T03:40:20.600Z,73.18
2023-05-15T03:50:22.805Z,72.91
2023-05-15T04:00:25.225Z,72.03
2023-05-15T04:10:27.650Z,71.77
2023-05-15T04:20:29.783Z,71.92
2023-05-15T04:30:31.868Z,71.95
2023-05-15T04:40:34.002Z,68.49
2023-05-15T04:50:37.362Z,69.97
2023-05-15T05:00:39.749Z,67.31
2023-05-15T05:10:41.845Z,68.89
2023-05-15T05:20:44.105Z,69.34
2023-05-15T05:30:47.828Z,68.38
2023-05-15T05:40:50.992Z,69.52
2023-05-15T05:50:53.131Z,69.25
2023-05-15T06:00:55.227Z,69.61
2023-05-15T06:10:57.355Z,68.38
2023-05-15T06:21:00.789Z,66.36
2023-05-15T06:31:03.040Z,65.69
2023-05-15T06:41:05.467Z,66.79
2023-05-15T06:51:07.943Z,65.66
2023-05-15T07:01:10.217Z,65.03
2023-05-15T07:11:12.327Z,64.47
2023-05-15T07:21:14.445Z,61.76
2023-05-15T07:31:16.619Z,63.45
2023-05-15T07:41:18.763Z,63.31
2023-05-15T07:51:20.924Z,63.70
2023-05-15T08:01:23.245Z,65.25
2023-05-15T08:11:25.411Z,61.95
2023-05-15T08:21:27.781Z,62.83
2023-05-15T08:31:30.144Z,61.14
2023-05-15T08:41:40.528Z,59.57
2023-05-15T08:51:43.655Z,57.51
2023-05-15T09:01:46.140Z,57.91
2023-05-15T09:11:51.212Z,58.59
2023-05-15T09:21:53.574Z,55.32
2023-05-15T09:31:56.074Z,53.32
2023-05-15T09:42:12.436Z,50.05
2023-05-15T09:52:15.797Z,51.35
2023-05-15T10:02:24.995Z,48.82
2023-05-15T10:12:28.727Z,49.94
2023-05-15T10:22:32.589Z,49.51
2023-05-15T10:32:35.238Z,47.32
2023-05-15T10:42:38.263Z,48.19
2023-05-15T10:52:40.910Z,44.91
2023-05-15T11:02:44.857Z,47.83
2023-05-15T11:13:01.193Z,43.56
2023-05-15T11:23:04.365Z,43.04
2023-05-15T11:33:10.023Z,41.54
2023-05-15T11:43:29.807Z,39.94
2023-05-15T11:53:33.553Z,38.73
2023-05-15T12:03:36.575Z,38.13
2023-05-15T12:13:39.889Z,37.25
2023-05-15T12:23:50.772Z,35.51
2023-05-15T12:33:58.733Z,35.71
2023-05-15T12:44:00.981Z,35.44
2023-05-15T12:54:03.138Z,36.11
2023-05-15T13:04:05.921Z,32.64
2023-05-15T13:14:17.189Z,31.04
2023-05-15T13:24:19.602Z,30.84
2023-05-15T13:34:21.822Z,32.17
2023-05-15T13:44:24.434Z,32.47
2023-05-15T13:54:26.637Z,32.02
2023-05-15T14:04:29.257Z,30.97
2023-05-15T14:14:31.447Z,34.42
2023-05-15T14:24:33.673Z,34.62
2023-05-15T14:34:35.871Z,35.05
2023-05-15T14:44:38.034Z,34.50
2023-05-15T14:54:40.245Z,36.93
2023-05-15T15:04:42.361Z,39.36
2023-05-15T15:14:44.606Z,35.85
2023-05-15T15:24:46.758Z,35.39
2023-05-15T15:34:48.886Z,33.31
2023-05-15T15:44:51.175Z,37.19
2023-05-15T15:54:53.461Z,40.33
2023-05-15T16:04:55.707Z,41.55
2023-05-15T16:15:00.240Z,42.84
2023-05-15T16:25:09.520Z,40.88
2023-05-15T16:35:11.628Z,40.46
2023-05-15T16:45:13.824Z,38.44
2023-05-15T16:55:17.974Z,40.69
2023-05-15T17:05:20.221Z,42.62
2023-05-15T17:15:23.103Z,40.40
2023-05-15T17:25:25.530Z,40.84
2023-05-15T17:35:30.578Z,43.25
2023-05-15T17:45:34.237Z,44.37
2023-05-15T17:55:36.438Z,43.58
2023-05-15T18:05:38.593Z,45.28
2023-05-15T18:15:40.740Z,45.54
2023-05-15T18:57:38.036Z,50.62
2023-05-15T19:07:41.525Z,52.27
2023-05-15T19:17:45.850Z,51.49
2023-05-15T19:27:48.056Z,52.59
2023-05-15T19:37:50.112Z,56.40
2023-05-15T19:47:52.253Z,59.39
2023-05-15T19:57:55.934Z,59.90
2023-05-15T20:07:58.198Z,63.86
2023-05-15T20:18:00.655Z,59.50
2023-05-15T20:28:04.155Z,60.88
2023-05-15T20:38:06.377Z,59.95
2023-05-15T20:48:10.957Z,60.33
2023-05-15T20:58:13.241Z,58.73
2023-05-15T21:08:15.366Z,58.30
2023-05-15T21:18:18.796Z,57.33
2023-05-15T21:28:20.969Z,58.06
2023-05-15T21:38:23.100Z,58.10
2023-05-15T21:48:25.778Z,57.65
2023-05-15T21:58:28.511Z,56.91
2023-05-15T22:08:30.793Z,59.44
2023-05-15T22:18:34.975Z,57.67
2023-05-15T22:28:37.374Z,58.93
2023-05-15T22:38:39.541Z,60.95
2023-05-15T22:48:41.772Z,62.61
2023-05-15T22:58:43.916Z,62.26
2023-05-15T23:08:46.659Z,64.86
2023-05-15T23:18:48.825Z,68.27
2023-05-15T23:28:50.962Z,68.43
2023-05-15T23:38:53.308Z,69.14
2023-05-15T23:48:55.364Z,70.15
2023-05-15T23:58:57.409Z,68.67
